Time;durP1;ratioP1;P1;durP2;ratioP2;P2;SDS_P1;SDS_P2;PMS_P1;PMS_P2;Temp;Humidity;BMP_temperature;BMP_pressure;BME280_temperature;BME280_humidity;BME280_pressure;Samples;Min_cycle;Max_cycle;Signal;HPM_P1;HPM_P2
2022/03/16 00:01:24;;;;;;;13.33;3.33;;;;;;;10.19;75.99;96838.28;5101607;27;20299;-81
2022/03/16 00:03:51;;;;;;;6.57;2.70;;;;;;;10.41;75.31;96844.16;5101874;27;20260;-81
2022/03/16 00:06:18;;;;;;;7.67;2.60;;;;;;;10.41;74.63;96838.78;5105905;27;20273;-81
2022/03/16 00:08:45;;;;;;;9.63;2.80;;;;;;;10.36;74.69;96835.91;5113137;27;20276;-81
2022/03/16 00:11:13;;;;;;;7.60;2.80;;;;;;;10.28;74.97;96830.78;5099193;27;20209;-81
2022/03/16 00:13:40;;;;;;;12.63;2.87;;;;;;;9.93;76.81;96832.16;5117331;27;20211;-81
2022/03/16 00:16:08;;;;;;;5.10;2.47;;;;;;;10.16;75.48;96817.09;5110299;27;20215;-81
2022/03/16 00:18:35;;;;;;;8.60;2.40;;;;;;;10.27;74.59;96821.00;5108284;27;20196;-81
2022/03/16 00:21:02;;;;;;;7.73;2.50;;;;;;;10.45;73.43;96807.63;5109562;27;20547;-81
2022/03/16 00:23:29;;;;;;;7.53;2.67;;;;;;;10.57;72.39;96816.66;5093286;28;20562;-80
2022/03/16 00:25:57;;;;;;;10.17;2.70;;;;;;;10.44;72.06;96813.22;5106729;27;20227;-81
2022/03/16 00:28:24;;;;;;;5.73;2.27;;;;;;;10.55;71.47;96817.91;5120906;27;20253;-81
2022/03/16 00:30:51;;;;;;;8.40;2.23;;;;;;;10.55;71.06;96816.03;5106378;27;20200;-81
2022/03/16 00:33:21;;;;;;;10.53;2.70;;;;;;;10.60;70.67;96802.72;5106475;27;20208;-81
2022/03/16 00:35:49;;;;;;;9.20;2.33;;;;;;;10.66;69.43;96805.56;5107594;27;20220;-81
2022/03/16 00:38:16;;;;;;;5.57;2.47;;;;;;;10.62;69.75;96797.09;5107942;27;20207;-81
2022/03/16 00:40:43;;;;;;;12.97;2.33;;;;;;;10.69;68.81;96816.78;5098228;27;20205;-81
2022/03/16 00:43:10;;;;;;;6.80;2.10;;;;;;;10.64;67.98;96805.78;5097539;28;20207;-81
2022/03/16 00:45:38;;;;;;;10.40;1.97;;;;;;;10.84;68.18;96811.88;5102599;28;20216;-81
2022/03/16 00:48:05;;;;;;;10.07;2.03;;;;;;;10.64;69.17;96803.09;5103940;27;20296;-80
2022/03/16 00:50:34;;;;;;;10.60;2.53;;;;;;;10.52;70.55;96796.75;5108512;27;20219;-81
2022/03/16 00:53:02;;;;;;;8.50;2.23;;;;;;;10.47;69.42;96791.16;5103430;27;20212;-81
2022/03/16 00:55:29;;;;;;;8.23;2.70;;;;;;;10.57;68.82;96784.25;5111426;27;20204;-80
2022/03/16 00:57:56;;;;;;;9.20;2.33;;;;;;;10.51;69.47;96789.69;5100265;27;20196;-81
2022/03/16 01:00:23;;;;;;;6.90;2.33;;;;;;;10.40;70.46;96803.88;5104127;28;20204;-80
2022/03/16 01:02:50;;;;;;;3.70;1.80;;;;;;;10.48;70.20;96790.94;5105053;27;20298;-81
2022/03/16 01:05:17;;;;;;;14.13;2.80;;;;;;;10.52;69.75;96780.56;5103282;27;20227;-81
2022/03/16 01:07:48;;;;;;;10.33;2.07;;;;;;;10.52;68.93;96786.78;5092858;27;20209;-81
2022/03/16 01:10:16;;;;;;;6.43;1.77;;;;;;;10.50;69.41;96778.06;5098109;27;20204;-81
2022/03/16 01:12:43;;;;;;;7.73;2.57;;;;;;;10.54;69.70;96767.66;5094148;28;20206;-80
2022/03/16 01:15:13;;;;;;;11.37;2.30;;;;;;;10.35;69.35;96774.88;5105117;27;20246;-81
2022/03/16 01:17:41;;;;;;;7.87;2.13;;;;;;;10.36;68.80;96765.72;5107473;27;20209;-81
2022/03/16 01:20:09;;;;;;;7.47;2.40;;;;;;;10.44;68.63;96767.31;5111645;27;20290;-81
2022/03/16 01:22:36;;;;;;;8.00;2.10;;;;;;;10.42;69.14;96759.44;5101026;27;20289;-81
2022/03/16 01:25:05;;;;;;;10.00;2.37;;;;;;;10.43;69.39;96749.47;5104450;27;20212;-81
2022/03/16 01:27:32;;;;;;;5.80;2.47;;;;;;;10.33;69.09;96749.13;5105724;27;20213;-81
2022/03/16 01:30:01;;;;;;;14.90;2.70;;;;;;;10.28;69.76;96763.28;5107751;27;20188;-80
2022/03/16 01:32:28;;;;;;;8.87;2.40;;;;;;;10.21;70.88;96751.69;5102603;27;20215;-81
2022/03/16 01:34:55;;;;;;;7.23;2.07;;;;;;;10.31;70.07;96749.34;5099929;27;20214;-81
2022/03/16 01:37:23;;;;;;;13.57;2.20;;;;;;;10.26;69.47;96749.19;5125339;27;20212;-80
2022/03/16 01:39:50;;;;;;;13.93;2.00;;;;;;;10.30;69.57;96739.59;5104965;27;20209;-80
2022/03/16 01:42:20;;;;;;;8.20;2.40;;;;;;;10.31;69.78;96741.25;5100998;27;20210;-80
2022/03/16 01:44:49;;;;;;;7.47;2.40;;;;;;;10.43;68.80;96746.78;5093514;28;20219;-80
2022/03/16 01:47:17;;;;;;;7.77;2.30;;;;;;;10.54;67.54;96740.66;5105900;27;20236;-81
2022/03/16 01:49:45;;;;;;;12.37;2.30;;;;;;;10.47;69.35;96729.06;5112530;27;20313;-81
2022/03/16 01:52:15;;;;;;;9.27;2.60;;;;;;;10.46;68.60;96739.03;5102420;28;20196;-81
2022/03/16 01:54:42;;;;;;;5.90;2.20;;;;;;;10.38;68.80;96733.91;5101099;27;20212;-80
2022/03/16 01:57:11;;;;;;;8.20;2.20;;;;;;;10.35;70.36;96731.69;5100714;27;20204;-80
2022/03/16 01:59:40;;;;;;;8.10;2.40;;;;;;;10.36;68.37;96724.41;5105762;27;20196;-81
2022/03/16 02:02:09;;;;;;;11.53;2.40;;;;;;;10.14;68.98;96713.09;5103789;28;20275;-80
2022/03/16 02:04:37;;;;;;;12.60;2.70;;;;;;;10.17;69.74;96718.06;5102811;27;20496;-80
2022/03/16 02:07:05;;;;;;;9.53;2.27;;;;;;;10.26;68.91;96724.88;5102658;27;20196;-81
2022/03/16 02:09:32;;;;;;;7.67;2.40;;;;;;;10.23;68.83;96722.63;5106763;27;20204;-81
2022/03/16 02:12:00;;;;;;;9.13;2.13;;;;;;;10.18;69.52;96717.88;5101752;28;20200;-81
2022/03/16 02:14:28;;;;;;;6.70;2.63;;;;;;;10.17;70.04;96718.06;5107757;28;20284;-81
2022/03/16 02:16:58;;;;;;;13.47;2.30;;;;;;;10.06;71.04;96716.06;5103942;27;20222;-80
2022/03/16 02:19:26;;;;;;;5.47;1.93;;;;;;;10.06;70.19;96698.00;5115258;27;20226;-81
2022/03/16 02:21:57;;;;;;;6.53;1.77;;;;;;;10.11;68.97;96708.16;5105520;28;20205;-80
2022/03/16 02:24:27;;;;;;;8.57;2.50;;;;;;;10.00;71.55;96719.66;5105550;27;20224;-81
2022/03/16 02:26:54;;;;;;;7.23;1.87;;;;;;;9.79;73.84;96716.22;5100155;28;20282;-81
2022/03/16 02:29:21;;;;;;;11.33;2.23;;;;;;;9.90;70.90;96721.97;5100459;28;20212;-81
2022/03/16 02:31:48;;;;;;;12.40;2.60;;;;;;;9.94;70.95;96717.81;5103843;28;20204;-80
2022/03/16 02:34:15;;;;;;;14.23;2.90;;;;;;;9.84;71.71;96713.72;5104231;28;20236;-81
2022/03/16 02:36:44;;;;;;;10.93;2.10;;;;;;;9.85;71.90;96715.38;5115695;28;20203;-81
2022/03/16 02:39:11;;;;;;;11.47;2.20;;;;;;;9.97;71.67;96731.69;5113688;27;20269;-81
2022/03/16 02:41:39;;;;;;;11.53;3.07;;;;;;;9.97;71.55;96723.59;5109176;28;20203;-81
2022/03/16 02:44:06;;;;;;;10.27;2.57;;;;;;;9.84;71.02;96713.72;5109274;28;20279;-80
2022/03/16 02:46:34;;;;;;;9.73;2.20;;;;;;;9.82;70.78;96718.50;5109616;27;20216;-80
2022/03/16 02:49:01;;;;;;;9.03;2.20;;;;;;;9.79;70.90;96731.59;5105816;27;20232;-80
2022/03/16 02:51:28;;;;;;;10.43;2.47;;;;;;;9.81;72.88;96733.03;5107561;27;20208;-80
2022/03/16 02:53:55;;;;;;;9.00;2.00;;;;;;;9.66;73.51;96726.28;5123797;27;20265;-80
2022/03/16 02:56:27;;;;;;;8.50;2.83;;;;;;;9.70;73.12;96722.91;5104994;27;20240;-80
2022/03/16 02:58:56;;;;;;;6.23;2.43;;;;;;;9.78;71.85;96730.75;5105584;27;20204;-80
2022/03/16 03:01:23;;;;;;;11.07;2.23;;;;;;;9.79;72.55;96720.78;5106409;27;20204;-80
2022/03/16 03:03:50;;;;;;;18.30;2.67;;;;;;;9.83;72.72;96713.94;5121045;27;20215;-80
2022/03/16 03:06:17;;;;;;;7.37;2.77;;;;;;;9.60;72.45;96727.97;5103929;27;20231;-80
2022/03/16 03:08:45;;;;;;;8.80;2.50;;;;;;;9.67;71.77;96727.94;5099510;27;20204;-80
2022/03/16 03:11:12;;;;;;;14.10;2.30;;;;;;;9.68;72.28;96727.72;5102866;27;20233;-80
2022/03/16 03:13:39;;;;;;;10.20;2.70;;;;;;;9.80;71.69;96723.28;5110093;27;20266;-80
2022/03/16 03:16:08;;;;;;;5.23;1.90;;;;;;;9.88;71.07;96731.13;5107216;27;20292;-80
2022/03/16 03:18:37;;;;;;;7.27;2.23;;;;;;;10.06;70.59;96735.78;5121545;27;20217;-80
2022/03/16 03:21:05;;;;;;;7.13;2.27;;;;;;;9.99;69.32;96723.38;5120590;27;20228;-80
2022/03/16 03:23:32;;;;;;;12.10;2.83;;;;;;;9.96;69.77;96727.34;5107065;27;20318;-80
2022/03/16 03:25:59;;;;;;;12.33;2.20;;;;;;;9.93;71.17;96727.78;5105248;27;20276;-80
2022/03/16 03:28:26;;;;;;;6.40;2.00;;;;;;;9.86;72.17;96735.09;5105086;27;20196;-80
2022/03/16 03:30:53;;;;;;;11.47;2.23;;;;;;;9.80;71.59;96727.84;5106373;28;20234;-80
2022/03/16 03:33:21;;;;;;;11.60;2.53;;;;;;;9.90;70.88;96724.69;5106389;27;20288;-80
2022/03/16 03:35:49;;;;;;;11.73;2.73;;;;;;;9.99;70.33;96731.47;5105789;27;20273;-80
2022/03/16 03:38:16;;;;;;;11.77;2.40;;;;;;;9.85;71.82;96742.34;5111491;27;20298;-80
2022/03/16 03:40:43;;;;;;;10.73;2.70;;;;;;;9.62;73.47;96738.50;5102541;28;20212;-80
2022/03/16 03:43:10;;;;;;;12.90;2.20;;;;;;;9.66;73.29;96731.66;5102944;27;20219;-80
2022/03/16 03:45:37;;;;;;;10.87;2.33;;;;;;;9.74;72.68;96734.09;5108563;27;20230;-80
2022/03/16 03:48:05;;;;;;;12.50;2.40;;;;;;;9.69;72.76;96740.16;5100365;28;20208;-80
2022/03/16 03:50:34;;;;;;;11.30;2.27;;;;;;;9.44;73.71;96736.53;5104639;27;20204;-80
2022/03/16 03:53:01;;;;;;;4.23;1.90;;;;;;;9.57;73.92;96749.94;5123271;27;20211;-80
2022/03/16 03:55:28;;;;;;;8.67;2.47;;;;;;;9.25;76.20;96761.69;5102194;27;20268;-80
2022/03/16 03:57:57;;;;;;;11.50;2.40;;;;;;;9.20;76.35;96753.38;5102088;27;20196;-80
2022/03/16 04:00:24;;;;;;;15.87;2.97;;;;;;;9.19;76.38;96751.72;5112807;27;20204;-80
2022/03/16 04:02:52;;;;;;;10.50;2.70;;;;;;;9.31;74.39;96755.44;5103791;27;20203;-80
2022/03/16 04:05:21;;;;;;;11.97;2.60;;;;;;;9.33;75.95;96753.38;5107905;27;20318;-80
2022/03/16 04:07:49;;;;;;;7.20;1.90;;;;;;;9.33;76.72;96753.38;5098786;27;20211;-80
2022/03/16 04:10:17;;;;;;;10.97;2.43;;;;;;;9.40;74.98;96754.16;5103931;27;20216;-80
2022/03/16 04:12:45;;;;;;;6.00;2.03;;;;;;;9.43;74.34;96748.38;5108173;27;20209;-80
2022/03/16 04:15:12;;;;;;;10.73;2.67;;;;;;;9.36;75.62;96761.00;5103680;27;20307;-80
2022/03/16 04:17:39;;;;;;;11.50;2.57;;;;;;;9.22;76.74;96751.31;5108778;27;20291;-80
2022/03/16 04:20:08;;;;;;;7.93;2.00;;;;;;;9.25;76.26;96746.34;5106598;27;20254;-80
2022/03/16 04:22:35;;;;;;;10.67;2.43;;;;;;;9.13;76.47;96755.28;5103071;27;20228;-80
2022/03/16 04:25:04;;;;;;;21.83;3.10;;;;;;;8.91;78.20;96749.34;5103090;28;20204;-80
2022/03/16 04:27:31;;;;;;;12.57;2.40;;;;;;;8.96;78.16;96755.72;5104313;27;20326;-80
2022/03/16 04:29:59;;;;;;;12.57;2.97;;;;;;;8.87;79.21;96743.53;5116520;27;20277;-80
2022/03/16 04:32:26;;;;;;;10.17;2.17;;;;;;;8.91;78.03;96744.78;5112905;27;20206;-80
2022/03/16 04:34:53;;;;;;;8.27;2.17;;;;;;;9.04;77.69;96751.97;5120327;27;20192;-80
2022/03/16 04:37:20;;;;;;;11.00;2.40;;;;;;;9.05;77.16;96748.25;5104895;27;20406;-80
2022/03/16 04:39:47;;;;;;;5.77;2.13;;;;;;;9.15;76.54;96751.34;5103380;27;20208;-80
2022/03/16 04:42:16;;;;;;;15.63;2.40;;;;;;;9.17;75.38;96746.59;5103940;27;20200;-80
2022/03/16 04:44:43;;;;;;;13.90;2.63;;;;;;;9.33;75.16;96747.97;5105766;27;20208;-80
2022/03/16 04:47:10;;;;;;;9.20;2.50;;;;;;;9.30;76.31;96754.63;5116170;27;20219;-80
2022/03/16 04:49:37;;;;;;;10.90;2.53;;;;;;;9.33;75.83;96742.59;5096674;27;20212;-80
2022/03/16 04:52:05;;;;;;;6.83;2.23;;;;;;;9.46;74.82;96743.34;5105154;27;20206;-80
2022/03/16 04:54:32;;;;;;;13.17;2.70;;;;;;;9.63;74.56;96751.78;5105850;27;20263;-80
2022/03/16 04:56:59;;;;;;;14.53;2.90;;;;;;;9.72;73.87;96758.59;5104176;27;20210;-80
2022/03/16 04:59:28;;;;;;;14.83;3.13;;;;;;;9.35;75.44;96756.69;5107798;27;20200;-80
2022/03/16 05:01:55;;;;;;;17.27;3.40;;;;;;;9.20;76.66;96759.59;5102192;27;20195;-80
2022/03/16 05:04:22;;;;;;;14.93;3.00;;;;;;;9.11;77.72;96761.72;5110559;27;20212;-80
2022/03/16 05:06:49;;;;;;;16.80;3.17;;;;;;;9.18;78.26;96750.94;5107083;27;20216;-80
2022/03/16 05:09:16;;;;;;;5.97;2.60;;;;;;;9.18;77.42;96758.19;5114719;27;20201;-80
2022/03/16 05:11:44;;;;;;;9.93;2.70;;;;;;;9.31;77.19;96758.97;5116313;27;20211;-80
2022/03/16 05:14:11;;;;;;;13.87;3.70;;;;;;;9.32;76.75;96763.31;5110714;27;20208;-80
2022/03/16 05:16:40;;;;;;;17.27;4.10;;;;;;;9.34;76.91;96768.50;5100809;27;20236;-80
2022/03/16 05:19:07;;;;;;;11.13;3.60;;;;;;;9.35;77.15;96759.38;5105236;27;20242;-79
2022/03/16 05:21:34;;;;;;;9.47;4.37;;;;;;;9.31;77.32;96761.66;5103534;28;20224;-80
2022/03/16 05:24:01;;;;;;;15.03;3.20;;;;;;;9.42;77.27;96755.63;5104391;27;20232;-80
2022/03/16 05:26:28;;;;;;;13.17;4.17;;;;;;;9.43;76.63;96772.63;5111817;27;20326;-80
2022/03/16 05:28:56;;;;;;;11.33;3.53;;;;;;;9.28;77.85;96766.63;5096409;28;20213;-80
2022/03/16 05:31:23;;;;;;;14.43;3.53;;;;;;;9.30;78.14;96769.94;5098508;28;20216;-80
2022/03/16 05:33:52;;;;;;;13.20;3.40;;;;;;;9.25;78.50;96767.06;5118044;27;20204;-81
2022/03/16 05:36:19;;;;;;;13.70;3.87;;;;;;;9.03;80.05;96764.63;5118661;27;20222;-80
2022/03/16 05:38:46;;;;;;;13.30;3.50;;;;;;;8.99;80.54;96778.75;5117707;27;20220;-80
2022/03/16 05:41:14;;;;;;;9.87;3.67;;;;;;;8.97;80.83;96778.09;5096110;27;20224;-80
2022/03/16 05:43:43;;;;;;;15.90;4.27;;;;;;;8.61;82.96;96767.78;5103372;28;20200;-80
2022/03/16 05:46:10;;;;;;;10.67;3.20;;;;;;;8.66;83.60;96779.59;5105505;27;20224;-79
2022/03/16 05:48:37;;;;;;;13.57;3.03;;;;;;;8.75;83.70;96787.47;5124301;27;20226;-80
2022/03/16 05:51:06;;;;;;;20.33;3.70;;;;;;;8.73;83.51;96784.97;5105694;28;20285;-80
2022/03/16 05:53:33;;;;;;;17.73;4.20;;;;;;;8.73;83.49;96795.75;5112690;27;20224;-80
2022/03/16 05:56:00;;;;;;;22.60;6.30;;;;;;;8.80;84.16;96790.34;5097089;28;20209;-80
2022/03/16 05:58:28;;;;;;;16.03;4.00;;;;;;;8.83;83.21;96798.03;5120562;27;20618;-80
2022/03/16 06:00:55;;;;;;;17.33;3.87;;;;;;;8.72;83.92;96796.78;5103813;27;20196;-80
2022/03/16 06:03:22;;;;;;;13.50;3.67;;;;;;;8.83;84.10;96803.41;5103714;27;20244;-80
2022/03/16 06:05:49;;;;;;;18.33;3.70;;;;;;;8.74;83.82;96805.47;5102964;28;20197;-79
2022/03/16 06:08:18;;;;;;;13.33;3.43;;;;;;;8.79;84.31;96811.06;5103143;27;20209;-79
2022/03/16 06:10:45;;;;;;;17.47;3.93;;;;;;;8.87;83.68;96804.63;5103939;28;20279;-80
2022/03/16 06:13:12;;;;;;;12.83;3.80;;;;;;;8.89;83.05;96806.09;5116431;27;20205;-80
2022/03/16 06:15:41;;;;;;;12.70;3.87;;;;;;;8.88;84.39;96809.00;5101405;28;20255;-80
2022/03/16 06:18:09;;;;;;;15.23;4.83;;;;;;;8.72;84.18;96821.84;5104001;28;20200;-80
2022/03/16 06:20:37;;;;;;;15.90;3.63;;;;;;;8.59;85.49;96818.31;5096414;27;20204;-80
2022/03/16 06:23:05;;;;;;;15.03;3.60;;;;;;;8.64;86.42;96824.75;5095803;28;20240;-81
2022/03/16 06:25:34;;;;;;;12.13;3.60;;;;;;;8.67;86.06;96824.34;5107800;28;20268;-80
2022/03/16 06:28:02;;;;;;;11.23;3.73;;;;;;;8.57;86.38;96826.59;5094170;28;20319;-79
2022/03/16 06:30:29;;;;;;;16.23;4.17;;;;;;;8.69;86.32;96824.09;5104219;28;20204;-80
2022/03/16 06:32:56;;;;;;;9.53;3.80;;;;;;;8.70;86.27;96821.22;5100093;28;20200;-80
2022/03/16 06:35:23;;;;;;;11.27;4.23;;;;;;;8.66;86.57;96829.91;5100898;28;20302;-80
2022/03/16 06:37:50;;;;;;;10.63;4.10;;;;;;;8.53;87.19;96827.19;5103552;28;20332;-80
2022/03/16 06:40:17;;;;;;;10.23;3.87;;;;;;;8.64;87.71;96840.06;5113223;28;20192;-80
2022/03/16 06:42:51;;;;;;;27.90;5.17;;;;;;;8.42;89.53;96846.66;5100271;28;20291;-80
2022/03/16 06:45:20;;;;;;;18.27;4.57;;;;;;;8.30;90.57;96828.41;5110924;27;20204;-80
2022/03/16 06:47:47;;;;;;;14.73;4.33;;;;;;;8.26;91.60;96843.28;5101744;28;20219;-80
2022/03/16 06:50:15;;;;;;;10.63;3.70;;;;;;;8.22;92.09;96841.22;5100042;28;20231;-80
2022/03/16 06:52:42;;;;;;;16.87;5.13;;;;;;;8.34;92.34;96851.19;5111457;28;20211;-80
2022/03/16 06:55:10;;;;;;;19.53;4.63;;;;;;;8.25;94.11;96838.91;5115322;27;20291;-80
2022/03/16 06:57:38;;;;;;;14.20;4.23;;;;;;;8.32;93.68;96841.69;5104844;28;20249;-80
2022/03/16 07:00:09;;;;;;;14.17;4.63;;;;;;;8.41;94.02;96839.63;5090204;28;20208;-80
2022/03/16 07:02:50;;;;;;;14.90;4.40;;;;;;;8.59;93.00;96840.66;5110759;27;20208;-80
2022/03/16 07:05:17;;;;;;;14.97;4.33;;;;;;;8.65;92.64;96836.34;5103709;28;20212;-80
2022/03/16 07:07:44;;;;;;;12.83;4.37;;;;;;;8.66;92.57;96838.81;5108629;28;20227;-80
2022/03/16 07:10:11;;;;;;;103.03;47.00;;;;;;;8.64;92.29;96850.81;5100960;28;20253;-80
2022/03/16 07:12:39;;;;;;;29.53;10.07;;;;;;;8.70;92.75;96847.31;5101174;28;20201;-81
2022/03/16 07:15:09;;;;;;;16.10;5.93;;;;;;;8.44;96.43;96840.03;5102360;28;20224;-81
2022/03/16 07:17:36;;;;;;;18.00;7.93;;;;;;;8.57;96.54;96841.94;5101597;28;20214;-81
2022/03/16 07:20:06;;;;;;;20.83;7.17;;;;;;;8.64;96.04;96843.59;5102090;28;20295;-81
2022/03/16 07:22:34;;;;;;;23.23;7.60;;;;;;;8.54;96.59;96834.25;5098154;28;20232;-81
2022/03/16 07:25:02;;;;;;;15.97;5.30;;;;;;;8.64;97.69;96840.91;5101426;28;20216;-81
2022/03/16 07:27:29;;;;;;;11.87;5.27;;;;;;;8.57;97.64;96829.28;5114223;28;20216;-81
2022/03/16 07:29:56;;;;;;;27.30;6.10;;;;;;;8.60;97.91;96841.50;5115719;28;20197;-81
2022/03/16 07:32:24;;;;;;;31.27;6.27;;;;;;;8.52;97.02;96839.84;5119568;27;20212;-81
2022/03/16 07:34:51;;;;;;;21.13;5.67;;;;;;;8.51;95.34;96826.56;5100438;27;20323;-81
2022/03/16 07:37:19;;;;;;;18.57;6.47;;;;;;;8.44;95.81;96831.13;5104810;27;20241;-81
2022/03/16 07:39:46;;;;;;;17.63;5.87;;;;;;;8.66;94.92;96830.75;5105156;27;20212;-81
2022/03/16 07:42:13;;;;;;;22.53;6.80;;;;;;;8.68;94.28;96834.03;5124670;27;20302;-81
2022/03/16 07:44:41;;;;;;;29.87;7.67;;;;;;;8.69;94.57;96842.94;5103280;27;20218;-82
2022/03/16 07:47:09;;;;;;;19.30;6.80;;;;;;;8.85;92.71;96833.63;5105620;28;20240;-81
2022/03/16 07:49:37;;;;;;;17.57;6.63;;;;;;;8.97;92.85;96827.44;5104226;27;20439;-81
2022/03/16 07:52:05;;;;;;;17.90;6.37;;;;;;;9.14;91.06;96829.69;5102171;27;20200;-81
2022/03/16 07:54:32;;;;;;;16.27;6.03;;;;;;;9.10;91.14;96821.22;5100372;27;20204;-82
2022/03/16 07:57:00;;;;;;;12.80;5.33;;;;;;;9.16;91.06;96823.06;5105033;27;20204;-81
2022/03/16 07:59:27;;;;;;;16.63;6.80;;;;;;;9.15;91.29;96813.31;5110443;27;20247;-79
2022/03/16 08:01:54;;;;;;;16.20;5.80;;;;;;;9.25;91.75;96816.41;5102368;27;20199;-81
2022/03/16 08:04:21;;;;;;;16.20;5.87;;;;;;;9.49;89.87;96817.59;5106551;27;20208;-81
2022/03/16 08:06:49;;;;;;;14.13;5.70;;;;;;;9.67;89.72;96804.25;5104535;27;20292;-81
2022/03/16 08:09:16;;;;;;;16.00;6.00;;;;;;;9.87;88.07;96799.59;5108201;27;20284;-81
2022/03/16 08:11:43;;;;;;;24.63;6.47;;;;;;;10.07;86.81;96804.06;5102028;28;20206;-81
2022/03/16 08:14:12;;;;;;;15.60;5.40;;;;;;;10.14;85.29;96794.06;5107065;27;20204;-81
2022/03/16 08:16:39;;;;;;;16.50;5.93;;;;;;;10.16;85.81;96798.19;5102276;27;20236;-81
2022/03/16 08:19:06;;;;;;;15.80;5.77;;;;;;;9.99;85.40;96791.66;5110663;27;20200;-81
2022/03/16 08:21:34;;;;;;;24.93;5.97;;;;;;;10.06;86.19;96797.00;5121049;27;20196;-81
2022/03/16 08:24:02;;;;;;;16.17;5.33;;;;;;;10.14;86.00;96797.59;5104684;27;20322;-80
2022/03/16 08:26:29;;;;;;;13.93;4.53;;;;;;;10.34;84.20;96789.41;5104794;27;20214;-81
2022/03/16 08:28:56;;;;;;;12.27;4.10;;;;;;;10.50;82.64;96788.03;5110908;27;20196;-82
2022/03/16 08:31:23;;;;;;;14.10;4.17;;;;;;;10.71;80.89;96784.97;5107205;27;20228;-81
2022/03/16 08:33:51;;;;;;;12.77;4.10;;;;;;;10.95;79.01;96783.31;5111575;27;20220;-80
2022/03/16 08:36:18;;;;;;;11.23;4.53;;;;;;;11.03;78.83;96785.72;5098384;28;20232;-81
2022/03/16 08:38:45;;;;;;;13.43;4.30;;;;;;;11.11;79.35;96787.31;5101763;27;20205;-80
2022/03/16 08:41:13;;;;;;;18.23;5.17;;;;;;;11.19;79.24;96797.84;5119361;27;20234;-81
2022/03/16 08:43:40;;;;;;;17.40;5.70;;;;;;;11.19;79.23;96801.38;5117430;27;20284;-81
2022/03/16 08:46:07;;;;;;;18.30;5.07;;;;;;;11.04;78.78;96789.25;5102670;28;20201;-81
2022/03/16 08:48:34;;;;;;;16.07;4.17;;;;;;;11.23;77.55;96790.91;5107421;27;20223;-81
2022/03/16 08:51:02;;;;;;;12.40;3.83;;;;;;;11.29;76.79;96782.75;5121450;27;20318;-81
2022/03/16 08:53:30;;;;;;;20.87;4.87;;;;;;;11.37;77.34;96793.28;5106978;27;20208;-81
2022/03/16 08:55:57;;;;;;;8.70;4.50;;;;;;;11.36;76.64;96780.81;5108755;28;20192;-81
2022/03/16 08:58:25;;;;;;;10.57;4.50;;;;;;;11.40;77.52;96778.47;5104972;27;20212;-81
2022/03/16 09:00:52;;;;;;;10.90;4.50;;;;;;;11.51;76.77;96790.41;5097615;27;20211;-81
2022/03/16 09:03:19;;;;;;;11.47;4.63;;;;;;;11.55;77.26;96780.81;5103491;27;20237;-81
2022/03/16 09:05:47;;;;;;;20.00;4.40;;;;;;;11.75;73.31;96776.00;5094940;27;20273;-81
2022/03/16 09:08:14;;;;;;;11.97;3.87;;;;;;;11.96;73.38;96772.84;5100814;27;20232;-79
2022/03/16 09:10:42;;;;;;;10.17;4.23;;;;;;;12.04;71.98;96769.00;5097064;27;20208;-80
2022/03/16 09:13:10;;;;;;;11.77;4.47;;;;;;;12.33;71.44;96779.00;5095594;27;20215;-80
2022/03/16 09:15:39;;;;;;;12.73;4.40;;;;;;;12.39;70.66;96766.41;5112127;27;20224;-81
2022/03/16 09:18:08;;;;;;;16.27;4.40;;;;;;;12.56;70.00;96778.22;5096858;27;20302;-80
2022/03/16 09:20:36;;;;;;;16.47;4.30;;;;;;;12.69;70.28;96771.75;5120902;27;20204;-81
2022/03/16 09:23:03;;;;;;;15.67;4.57;;;;;;;12.85;69.62;96774.59;5117217;27;20236;-80
2022/03/16 09:25:30;;;;;;;25.87;4.60;;;;;;;12.83;67.94;96774.03;5104032;27;20204;-81
2022/03/16 09:27:57;;;;;;;9.00;3.80;;;;;;;12.83;66.34;96762.38;5097521;27;20221;-81
2022/03/16 09:30:24;;;;;;;14.47;4.37;;;;;;;12.75;66.71;96762.72;5105865;28;20243;-80
2022/03/16 09:32:57;;;;;;;12.47;4.13;;;;;;;12.73;66.94;96760.22;5099505;27;20227;-82
2022/03/16 09:35:24;;;;;;;11.43;4.40;;;;;;;12.77;68.82;96764.13;5095392;27;20228;-81
2022/03/16 09:37:53;;;;;;;12.73;4.30;;;;;;;12.92;68.74;96760.97;5103657;28;20287;-81
2022/03/16 09:40:21;;;;;;;11.80;4.30;;;;;;;13.02;67.27;96763.06;5104070;27;20216;-81
2022/03/16 09:42:49;;;;;;;13.87;4.40;;;;;;;13.05;66.46;96755.31;5101042;27;20188;-81
2022/03/16 09:45:19;;;;;;;15.60;4.90;;;;;;;12.89;68.49;96770.38;5105614;27;20209;-81
2022/03/16 09:47:47;;;;;;;22.20;5.67;;;;;;;12.94;70.01;96758.81;5093210;27;20227;-81
2022/03/16 09:50:18;;;;;;;10.20;4.83;;;;;;;13.19;69.83;96750.47;5102389;28;20253;-81
2022/03/16 09:52:46;;;;;;;16.67;5.70;;;;;;;13.36;70.35;96750.59;5102514;27;20222;-81
2022/03/16 09:55:13;;;;;;;28.27;6.70;;;;;;;13.15;72.87;96744.72;5101427;27;20208;-80
2022/03/16 09:57:41;;;;;;;14.07;5.20;;;;;;;13.30;72.63;96746.94;5117589;27;20227;-81
2022/03/16 10:00:11;;;;;;;14.23;6.17;;;;;;;13.34;72.74;96742.72;5102247;27;20216;-81
2022/03/16 10:02:38;;;;;;;11.47;5.83;;;;;;;13.46;72.75;96743.50;5100303;28;20215;-80
2022/03/16 10:05:09;;;;;;;18.07;5.87;;;;;;;13.64;72.20;96737.91;5104147;27;20200;-81
2022/03/16 10:07:37;;;;;;;12.37;5.23;;;;;;;13.67;70.80;96742.03;5102970;27;20215;-81
2022/03/16 10:15:36;;;;;;;18.27;5.87;;;;;;;13.76;71.45;96739.78;5100433;28;20298;-80
2022/03/16 10:18:05;;;;;;;14.63;5.27;;;;;;;13.70;70.74;96735.28;5098123;27;20318;-81
2022/03/16 10:20:33;;;;;;;15.93;5.87;;;;;;;13.76;69.99;96727.03;5101505;28;20205;-79
2022/03/16 10:23:05;;;;;;;13.70;5.23;;;;;;;13.81;69.91;96735.28;5096285;28;20235;-81
2022/03/16 10:25:35;;;;;;;14.97;5.27;;;;;;;13.59;70.68;96734.28;5118731;27;20196;-81
2022/03/16 10:28:11;;;;;;;13.47;5.83;;;;;;;13.60;71.17;96731.34;5108289;28;20273;-81
2022/03/16 10:30:52;;;;;;;15.50;5.70;;;;;;;13.67;69.85;96730.38;5106498;28;20292;-80
2022/03/16 10:33:20;;;;;;;17.93;4.90;;;;;;;13.76;68.30;96723.50;5102267;28;20285;-81
2022/03/16 10:36:15;;;;;;;12.70;5.43;;;;;;;13.85;68.26;96732.91;5098864;28;20200;-81
2022/03/16 10:38:45;;;;;;;14.97;5.40;;;;;;;13.91;68.06;96737.38;5072119;28;20223;-80
2022/03/16 10:46:34;;;;;;;19.33;5.73;;;;;;;13.98;67.15;96727.19;5102668;28;20302;-80
2022/03/16 10:46:48;;;;;;;14.00;5.20;;;;;;;14.19;66.34;96723.78;5095603;28;20208;-81
2022/03/16 10:49:19;;;;;;;17.33;5.00;;;;;;;14.20;66.60;96709.16;5102645;28;20216;-82
2022/03/16 10:51:47;;;;;;;16.37;5.33;;;;;;;14.33;64.94;96716.97;5103132;28;20208;-81
2022/03/16 10:54:16;;;;;;;13.30;5.07;;;;;;;14.48;63.18;96710.19;5094916;28;20204;-81
2022/03/16 10:56:45;;;;;;;10.70;4.43;;;;;;;14.63;63.06;96708.53;5092557;28;20201;-81
2022/03/16 10:59:13;;;;;;;16.10;5.27;;;;;;;14.67;60.91;96711.59;5101870;28;20204;-81
2022/03/16 11:01:42;;;;;;;16.00;5.80;;;;;;;14.69;62.04;96704.84;5119400;27;20338;-81
2022/03/16 11:04:09;;;;;;;11.57;4.50;;;;;;;14.71;63.04;96705.44;5092951;28;20193;-81
2022/03/16 11:06:37;;;;;;;15.50;5.53;;;;;;;14.74;63.42;96704.09;5104249;27;20218;-81
2022/03/16 11:09:05;;;;;;;12.40;4.73;;;;;;;14.73;63.40;96699.72;5101669;27;20212;-81
2022/03/16 11:14:20;;;;;;;13.40;4.90;;;;;;;14.94;62.89;96685.38;5109187;27;20207;-81
2022/03/16 11:16:50;;;;;;;10.47;4.70;;;;;;;15.04;63.04;96688.25;5123636;27;20224;-80
2022/03/16 11:19:19;;;;;;;8.67;4.63;;;;;;;15.25;60.74;96685.81;5103342;28;20447;-81
2022/03/16 11:21:51;;;;;;;17.10;5.40;;;;;;;15.34;60.33;96682.41;5108568;27;20211;-81
2022/03/16 11:24:22;;;;;;;15.87;4.50;;;;;;;15.51;58.87;96683.16;5125643;27;20239;-80
2022/03/16 11:27:16;;;;;;;11.83;4.57;;;;;;;15.48;58.76;96674.69;5101991;28;20270;-81
2022/03/16 11:30:06;;;;;;;13.57;4.33;;;;;;;15.47;58.31;96673.06;5108349;27;20215;-80
2022/03/16 11:32:36;;;;;;;12.53;4.27;;;;;;;15.36;57.87;96674.81;5110711;27;20199;-81
2022/03/16 11:35:07;;;;;;;11.23;4.10;;;;;;;15.39;58.05;96668.06;5118107;27;20228;-81
2022/03/16 11:37:36;;;;;;;16.87;4.40;;;;;;;15.63;57.20;96658.59;5112043;27;20203;-81
2022/03/16 11:40:10;;;;;;;13.90;4.38;;;;;;;15.76;56.26;96658.19;5104422;27;20418;-81
2022/03/16 11:42:40;;;;;;;14.43;4.18;;;;;;;15.88;54.85;96656.16;5105468;27;20783;-81
2022/03/16 11:45:33;;;;;;;15.63;3.50;;;;;;;15.68;54.31;96645.00;5102338;28;20184;-80
2022/03/16 11:48:01;;;;;;;12.03;3.70;;;;;;;15.93;54.67;96640.91;5105383;27;20216;-81